Time;durP1;ratioP1;P1;durP2;ratioP2;P2;SDS_P1;SDS_P2;PMS_P1;PMS_P2;Temp;Humidity;BMP_temperature;BMP_pressure;BME280_temperature;BME280_humidity;BME280_pressure;Samples;Min_cycle;Max_cycle;Signal;HPM_P1;HPM_P2
2022/01/18 00:00:49;;;;;;;70.40;8.60;;;7.70;99.90;;;;;;5066507;28;20032;-76
2022/01/18 00:03:15;;;;;;;57.20;7.07;;;7.70;99.90;;;;;;5070325;28;20079;-76
2022/01/18 00:05:43;;;;;;;62.30;7.43;;;7.70;99.90;;;;;;5062637;28;20101;-76
2022/01/18 00:08:09;;;;;;;65.90;7.60;;;7.70;99.90;;;;;;5070212;28;20498;-77
2022/01/18 00:10:35;;;;;;;64.23;8.43;;;7.70;99.90;;;;;;5045131;28;20044;-76
2022/01/18 00:15:39;;;;;;;64.43;8.00;;;7.80;99.90;;;;;;5064414;28;20063;-76
2022/01/18 00:18:10;;;;;;;55.27;8.30;;;7.70;99.90;;;;;;5052051;28;20064;-77
2022/01/18 00:20:59;;;;;;;63.97;7.93;;;7.70;99.90;;;;;;5066293;28;20498;-76
2022/01/18 00:23:26;;;;;;;61.07;8.63;;;7.70;99.90;;;;;;5060373;28;20087;-77
2022/01/18 00:25:56;;;;;;;57.33;8.07;;;7.70;99.90;;;;;;5069722;28;20047;-76
2022/01/18 00:28:23;;;;;;;58.40;7.83;;;7.70;99.90;;;;;;5063310;28;20041;-75
2022/01/18 00:31:14;;;;;;;80.23;9.23;;;7.70;99.90;;;;;;5036471;28;20047;-76
2022/01/18 00:36:22;;;;;;;76.97;8.57;;;7.70;99.90;;;;;;5067988;28;20044;-76
2022/01/18 00:38:48;;;;;;;68.63;8.17;;;7.70;99.90;;;;;;5050430;28;20098;-76
2022/01/18 00:41:15;;;;;;;62.13;8.83;;;7.60;99.90;;;;;;5063682;28;20044;-76
2022/01/18 00:43:42;;;;;;;59.83;9.03;;;7.60;99.90;;;;;;5065763;28;20045;-76
2022/01/18 00:46:09;;;;;;;76.43;8.30;;;7.60;99.90;;;;;;5044955;28;20049;-76
2022/01/18 00:48:36;;;;;;;59.10;7.63;;;7.60;99.90;;;;;;5065486;28;20052;-75
2022/01/18 00:51:04;;;;;;;59.83;7.40;;;7.60;99.90;;;;;;5047447;28;20048;-76
2022/01/18 00:53:35;;;;;;;72.80;7.77;;;7.60;99.90;;;;;;5061633;28;20049;-77
2022/01/18 00:58:30;;;;;;;56.47;7.80;;;7.60;99.90;;;;;;5054874;28;20099;-77
2022/01/18 01:00:56;;;;;;;60.57;7.70;;;7.60;99.90;;;;;;5045397;28;20068;-76
2022/01/18 01:03:21;;;;;;;59.60;7.83;;;7.60;99.90;;;;;;5063130;28;20133;-76
2022/01/18 01:05:49;;;;;;;65.57;8.37;;;7.50;99.90;;;;;;5067243;28;20036;-76
2022/01/18 01:08:15;;;;;;;60.53;8.67;;;7.50;99.90;;;;;;5050653;28;20094;-77
2022/01/18 01:10:41;;;;;;;60.70;7.73;;;7.50;99.90;;;;;;5062144;28;20041;-76
2022/01/18 01:13:08;;;;;;;87.07;9.90;;;7.50;99.90;;;;;;5069868;28;20068;-77
2022/01/18 01:15:43;;;;;;;72.77;8.93;;;7.40;99.90;;;;;;5047391;28;20093;-76
2022/01/18 01:19:19;;;;;;;59.27;8.20;;;7.40;99.90;;;;;;5052060;28;20048;-75
2022/01/18 01:35:03;;;;;;;55.83;8.47;;;7.30;99.90;;;;;;5066348;28;20045;-76
2022/01/18 01:43:00;;;;;;;70.90;8.20;;;7.20;99.90;;;;;;5069943;28;20047;-77
2022/01/18 01:45:27;;;;;;;69.07;8.30;;;7.20;99.90;;;;;;5048178;28;20120;-77
2022/01/18 01:47:54;;;;;;;49.33;7.20;;;7.20;99.90;;;;;;5066366;28;20178;-78
2022/01/18 01:50:22;;;;;;;71.23;8.73;;;7.20;99.90;;;;;;5033653;28;20429;-77
2022/01/18 01:52:54;;;;;;;61.80;8.23;;;7.20;99.90;;;;;;5054550;28;20098;-77
2022/01/18 01:55:21;;;;;;;61.63;8.13;;;7.20;99.90;;;;;;5069998;28;20562;-78
2022/01/18 01:57:47;;;;;;;56.63;8.70;;;7.20;99.90;;;;;;5064458;28;20452;-77
2022/01/18 02:00:15;;;;;;;54.60;7.83;;;7.20;99.90;;;;;;5069334;28;20040;-78
2022/01/18 02:02:41;;;;;;;57.90;9.03;;;7.10;99.90;;;;;;5048801;28;20087;-78
2022/01/18 02:05:09;;;;;;;54.63;9.87;;;7.10;99.90;;;;;;5052980;28;20131;-78
2022/01/18 02:07:36;;;;;;;65.37;9.00;;;7.10;99.90;;;;;;5055636;28;20079;-77
2022/01/18 02:10:04;;;;;;;57.97;7.70;;;7.10;99.90;;;;;;5048782;28;20421;-77
2022/01/18 02:12:30;;;;;;;58.60;8.03;;;7.20;99.90;;;;;;5055000;28;20040;-78
2022/01/18 02:14:59;;;;;;;63.57;9.17;;;7.10;99.90;;;;;;5041386;28;20513;-77
2022/01/18 02:22:56;;;;;;;50.80;8.57;;;7.10;99.90;;;;;;5070992;28;20056;-77
2022/01/18 02:25:22;;;;;;;66.20;9.30;;;7.10;99.90;;;;;;5052997;28;20040;-78
2022/01/18 02:27:48;;;;;;;62.87;9.87;;;7.10;99.90;;;;;;5034641;28;20056;-78
2022/01/18 02:30:14;;;;;;;67.97;9.70;;;7.10;99.90;;;;;;5064259;28;20127;-77
2022/01/18 02:32:40;;;;;;;57.67;10.77;;;7.10;99.90;;;;;;5031175;28;20409;-77
2022/01/18 02:35:06;;;;;;;57.57;8.80;;;7.10;99.90;;;;;;5069846;28;20040;-78
2022/01/18 02:37:33;;;;;;;63.13;10.13;;;7.10;99.90;;;;;;5051729;28;20048;-77
2022/01/18 02:39:59;;;;;;;61.90;10.03;;;7.10;99.90;;;;;;5065441;28;20052;-77
2022/01/18 02:42:30;;;;;;;82.00;10.63;;;7.10;99.90;;;;;;5071509;28;20476;-77
2022/01/18 02:44:56;;;;;;;73.13;11.00;;;7.10;99.90;;;;;;5059303;28;20048;-77
2022/01/18 02:47:22;;;;;;;53.40;9.60;;;7.10;99.90;;;;;;5054875;28;20476;-77
2022/01/18 02:49:49;;;;;;;74.93;10.17;;;7.10;99.90;;;;;;5029884;28;20040;-78
2022/01/18 02:52:16;;;;;;;72.47;11.67;;;7.10;99.90;;;;;;5054590;28;20128;-77
2022/01/18 02:54:43;;;;;;;62.80;10.63;;;7.10;99.90;;;;;;5034927;28;20044;-77
2022/01/18 02:57:13;;;;;;;62.70;9.33;;;7.10;99.90;;;;;;5032480;28;20079;-77
2022/01/18 03:05:06;;;;;;;67.80;10.03;;;7.10;99.90;;;;;;5067972;28;20036;-77
2022/01/18 03:07:32;;;;;;;64.70;10.40;;;7.10;99.90;;;;;;5042080;28;20598;-78
2022/01/18 03:09:59;;;;;;;55.83;8.90;;;7.10;99.90;;;;;;5050773;28;20850;-77
2022/01/18 03:12:25;;;;;;;59.20;9.50;;;7.10;99.90;;;;;;5054686;28;20045;-77
2022/01/18 03:14:51;;;;;;;64.60;9.83;;;7.10;99.90;;;;;;5048103;28;20402;-78
2022/01/18 03:17:17;;;;;;;56.83;8.40;;;7.10;99.90;;;;;;5069694;28;20044;-77
2022/01/18 03:19:43;;;;;;;65.00;9.20;;;7.10;99.90;;;;;;5043874;28;20047;-77
2022/01/18 03:22:09;;;;;;;50.63;8.63;;;7.10;99.90;;;;;;5053837;28;20563;-77
2022/01/18 03:29:55;;;;;;;45.63;7.63;;;7.00;99.90;;;;;;5050779;28;20036;-78
2022/01/18 03:32:21;;;;;;;47.33;7.40;;;7.00;99.90;;;;;;5063790;28;20057;-77
2022/01/18 03:34:46;;;;;;;43.83;7.20;;;7.00;99.90;;;;;;5068138;28;20383;-77
2022/01/18 03:37:12;;;;;;;44.23;6.83;;;7.00;99.90;;;;;;5064400;28;20040;-78
2022/01/18 03:39:38;;;;;;;49.60;7.43;;;7.00;99.90;;;;;;5066731;28;20040;-77
2022/01/18 03:44:50;;;;;;;45.30;6.50;;;7.00;99.90;;;;;;5065651;28;20044;-77
2022/01/18 03:47:17;;;;;;;49.67;5.83;;;7.00;99.90;;;;;;5030840;28;20076;-76
2022/01/18 03:49:42;;;;;;;41.83;6.00;;;7.00;99.90;;;;;;5057311;28;20090;-77
2022/01/18 03:52:08;;;;;;;43.37;6.37;;;7.00;99.90;;;;;;5070521;28;20048;-77
2022/01/18 03:54:42;;;;;;;41.03;5.60;;;7.00;99.90;;;;;;5061567;28;20110;-77
2022/01/18 03:57:07;;;;;;;45.47;6.00;;;7.10;99.90;;;;;;5053490;28;20456;-77
2022/01/18 03:59:33;;;;;;;34.40;5.93;;;7.00;99.90;;;;;;5047087;28;20048;-77
2022/01/18 04:02:00;;;;;;;35.80;4.90;;;7.00;99.90;;;;;;5067212;28;20109;-77
2022/01/18 04:04:26;;;;;;;32.00;4.27;;;7.10;99.90;;;;;;5053463;28;20126;-77
2022/01/18 04:06:52;;;;;;;31.80;5.13;;;7.10;99.90;;;;;;5056548;28;20131;-77
2022/01/18 04:09:19;;;;;;;41.90;5.23;;;7.10;99.90;;;;;;5046175;28;20048;-77
2022/01/18 04:11:44;;;;;;;34.50;5.00;;;7.10;99.90;;;;;;5026103;28;20048;-77
2022/01/18 04:14:10;;;;;;;37.10;5.00;;;7.10;99.90;;;;;;5060543;28;20050;-77
2022/01/18 04:16:44;;;;;;;32.73;5.13;;;7.10;99.90;;;;;;5067624;28;20220;-77
2022/01/18 04:27:40;;;;;;;28.25;4.97;;;7.10;99.90;;;;;;5062307;28;19966;-78
2022/01/18 04:30:07;;;;;;;29.47;5.87;;;7.00;99.90;;;;;;5046420;28;20052;-77
2022/01/18 04:32:32;;;;;;;26.67;5.80;;;7.00;99.90;;;;;;5073440;28;20044;-77
2022/01/18 04:34:59;;;;;;;30.47;5.50;;;7.10;99.90;;;;;;5068945;28;20048;-77
2022/01/18 04:37:25;;;;;;;30.77;5.60;;;7.00;99.90;;;;;;5047948;28;20504;-77
2022/01/18 04:39:51;;;;;;;38.73;6.13;;;7.00;99.90;;;;;;5051443;28;20483;-77
2022/01/18 04:42:38;;;;;;;27.73;5.03;;;7.10;99.90;;;;;;5062643;28;20046;-77
2022/01/18 04:48:49;;;;;;;32.00;5.10;;;7.00;99.90;;;;;;5053096;28;20490;-78
2022/01/18 04:50:45;;;;;;;29.87;4.80;;;7.00;99.90;;;;;;5056084;28;20086;-78
2022/01/18 04:53:11;;;;;;;39.27;5.53;;;7.00;99.90;;;;;;5044806;28;20570;-77
2022/01/18 04:55:37;;;;;;;37.37;5.73;;;6.90;99.90;;;;;;5068066;28;20055;-77
2022/01/18 04:58:02;;;;;;;36.90;4.67;;;6.90;99.90;;;;;;5045257;28;20064;-77
2022/01/18 05:00:28;;;;;;;33.43;5.00;;;6.90;99.90;;;;;;5062638;28;20041;-77
2022/01/18 05:02:54;;;;;;;33.97;4.80;;;6.90;99.90;;;;;;5036560;28;20048;-77
2022/01/18 05:05:26;;;;;;;36.87;5.73;;;6.90;99.90;;;;;;5046040;28;20045;-77
2022/01/18 05:07:59;;;;;;;31.00;5.03;;;6.90;99.90;;;;;;5040949;28;20078;-77
2022/01/18 05:10:27;;;;;;;33.90;4.23;;;6.90;99.90;;;;;;5064862;28;20036;-77
2022/01/18 05:12:55;;;;;;;38.17;5.03;;;6.90;99.90;;;;;;5033562;28;20817;-77
2022/01/18 05:23:08;;;;;;;24.17;3.93;;;6.90;99.90;;;;;;5042440;28;20045;-77
2022/01/18 05:25:34;;;;;;;28.13;3.70;;;6.90;99.90;;;;;;5070073;28;20048;-77
2022/01/18 05:28:03;;;;;;;25.20;4.63;;;6.90;99.90;;;;;;5062436;28;20045;-77
2022/01/18 05:30:29;;;;;;;23.27;3.67;;;6.90;99.90;;;;;;5072527;28;20071;-77
2022/01/18 05:32:55;;;;;;;17.13;3.40;;;6.90;99.90;;;;;;5072190;28;20040;-77
2022/01/18 05:35:20;;;;;;;22.20;3.53;;;6.90;99.90;;;;;;5052131;28;20045;-77
2022/01/18 05:37:46;;;;;;;22.20;3.17;;;6.90;99.90;;;;;;5049397;28;20063;-77
2022/01/18 05:40:14;;;;;;;22.37;3.43;;;6.90;99.90;;;;;;5049993;28;20037;-77
2022/01/18 05:42:40;;;;;;;25.57;3.07;;;6.90;99.90;;;;;;5054322;28;20051;-78
2022/01/18 05:45:06;;;;;;;29.37;3.40;;;6.80;99.90;;;;;;5072457;28;20506;-78
2022/01/18 05:47:32;;;;;;;24.47;3.83;;;6.90;99.90;;;;;;5033817;28;20048;-78
2022/01/18 05:49:58;;;;;;;21.90;3.63;;;6.80;99.90;;;;;;5047485;28;20051;-78
2022/01/18 05:52:23;;;;;;;22.07;3.57;;;6.80;99.90;;;;;;5049157;28;20127;-78
2022/01/18 05:54:49;;;;;;;22.03;3.97;;;6.80;99.90;;;;;;5053399;28;20079;-77
2022/01/18 05:57:16;;;;;;;22.63;4.10;;;6.80;99.90;;;;;;5069244;28;20047;-78
2022/01/18 05:59:45;;;;;;;20.30;4.17;;;6.80;99.90;;;;;;5050131;28;20064;-77
2022/01/18 06:02:31;;;;;;;20.00;3.70;;;6.80;99.90;;;;;;5036766;28;20132;-77
2022/01/18 06:07:41;;;;;;;29.25;4.03;;;6.80;99.90;;;;;;5051475;28;20041;-77
2022/01/18 06:10:07;;;;;;;18.47;4.47;;;6.80;99.90;;;;;;5062419;28;20048;-77
2022/01/18 06:12:34;;;;;;;23.10;4.20;;;6.80;99.90;;;;;;5069067;28;20127;-77
2022/01/18 06:15:01;;;;;;;28.33;5.23;;;6.80;99.90;;;;;;5033891;28;20058;-77
2022/01/18 06:17:26;;;;;;;24.73;4.53;;;6.80;99.90;;;;;;5031949;28;20090;-77
2022/01/18 06:19:52;;;;;;;30.27;4.83;;;6.80;99.90;;;;;;5053562;28;20040;-78
2022/01/18 06:22:18;;;;;;;25.03;4.10;;;6.80;99.90;;;;;;5045480;28;20127;-77
2022/01/18 06:24:44;;;;;;;24.67;4.43;;;6.80;99.90;;;;;;5037119;28;20057;-77
2022/01/18 06:27:10;;;;;;;29.90;4.40;;;6.80;99.90;;;;;;5064120;28;20118;-77
2022/01/18 06:29:38;;;;;;;25.60;4.13;;;6.80;99.90;;;;;;5065998;28;20052;-77
2022/01/18 06:32:06;;;;;;;24.27;4.80;;;6.80;99.90;;;;;;5052145;28;20159;-77
2022/01/18 06:34:32;;;;;;;20.07;4.80;;;6.80;99.90;;;;;;5060330;28;20045;-77
2022/01/18 06:36:58;;;;;;;27.83;4.57;;;6.80;99.90;;;;;;5052655;28;20075;-77
2022/01/18 06:39:24;;;;;;;21.30;4.33;;;6.70;99.90;;;;;;5040887;28;20411;-78
2022/01/18 06:41:50;;;;;;;24.93;4.70;;;6.80;99.90;;;;;;5067587;28;20557;-78
2022/01/18 06:44:16;;;;;;;25.27;4.70;;;6.70;99.90;;;;;;5051159;28;20079;-78
2022/01/18 06:46:43;;;;;;;21.50;4.37;;;6.70;99.90;;;;;;5057979;28;20047;-77
2022/01/18 06:49:09;;;;;;;28.60;5.13;;;6.70;99.90;;;;;;5052674;28;20041;-77
2022/01/18 06:51:37;;;;;;;30.60;4.30;;;6.70;99.90;;;;;;5044114;28;20040;-78
2022/01/18 06:54:03;;;;;;;21.57;4.80;;;6.70;99.90;;;;;;5033143;28;20383;-77
2022/01/18 06:56:28;;;;;;;26.43;4.70;;;6.70;99.90;;;;;;5053771;28;20041;-77
2022/01/18 06:58:55;;;;;;;24.63;4.10;;;6.70;99.90;;;;;;5042900;28;20063;-78
2022/01/18 07:01:21;;;;;;;25.00;4.70;;;6.70;99.90;;;;;;5051215;28;20056;-78
2022/01/18 07:03:49;;;;;;;25.30;4.30;;;6.70;99.90;;;;;;5041766;28;20048;-78
2022/01/18 07:06:15;;;;;;;31.47;4.53;;;6.70;99.90;;;;;;5042192;28;20075;-77
2022/01/18 07:08:40;;;;;;;29.80;5.10;;;6.70;99.90;;;;;;5044191;28;20045;-77
2022/01/18 07:11:07;;;;;;;24.10;4.87;;;6.70;99.90;;;;;;5033123;28;20052;-77
2022/01/18 07:13:32;;;;;;;32.43;5.10;;;6.70;99.90;;;;;;5033364;28;20090;-77
2022/01/18 07:15:59;;;;;;;25.07;5.40;;;6.70;99.90;;;;;;5046894;28;20036;-78
2022/01/18 07:18:25;;;;;;;29.10;4.87;;;6.70;99.90;;;;;;5055179;28;20127;-78
2022/01/18 07:20:52;;;;;;;32.90;5.57;;;6.70;99.90;;;;;;5036826;28;20055;-78
2022/01/18 07:23:18;;;;;;;28.73;5.27;;;6.70;99.90;;;;;;5065479;28;20105;-78
2022/01/18 07:25:47;;;;;;;27.17;4.80;;;6.60;99.90;;;;;;5066586;28;20044;-77
2022/01/18 07:28:14;;;;;;;33.60;5.20;;;6.70;99.90;;;;;;5052319;28;20040;-78
2022/01/18 07:30:41;;;;;;;30.07;5.50;;;6.60;99.90;;;;;;5050209;28;20105;-78
2022/01/18 07:33:08;;;;;;;32.93;5.20;;;6.60;99.90;;;;;;5059339;28;20131;-78
2022/01/18 07:35:35;;;;;;;23.57;5.43;;;6.60;99.90;;;;;;5058775;28;20064;-78
2022/01/18 07:38:03;;;;;;;28.60;5.37;;;6.60;99.90;;;;;;5056366;28;20052;-78
2022/01/18 07:40:30;;;;;;;24.83;5.63;;;6.60;99.90;;;;;;5044724;28;20076;-78
2022/01/18 07:42:57;;;;;;;21.37;5.47;;;6.60;99.90;;;;;;5064937;28;20191;-79
2022/01/18 07:45:23;;;;;;;24.80;5.70;;;6.60;99.90;;;;;;5052953;22;20045;-82
2022/01/18 07:47:49;;;;;;;21.27;5.20;;;6.60;99.90;;;;;;5025791;28;20071;-80
2022/01/18 07:50:15;;;;;;;23.67;5.97;;;6.60;99.90;;;;;;5034017;28;20456;-80
2022/01/18 07:52:41;;;;;;;26.07;5.77;;;6.60;99.90;;;;;;5024374;28;20071;-80
2022/01/18 07:55:09;;;;;;;22.57;6.13;;;6.60;99.90;;;;;;5021309;28;20415;-80
2022/01/18 07:57:40;;;;;;;31.43;5.43;;;6.60;99.90;;;;;;5025122;28;20062;-80
2022/01/18 08:00:08;;;;;;;32.20;6.23;;;6.60;99.90;;;;;;5023693;28;20048;-80
2022/01/18 08:02:39;;;;;;;27.73;6.17;;;6.60;99.90;;;;;;5014364;28;20061;-79
2022/01/18 08:05:07;;;;;;;27.63;6.27;;;6.60;99.90;;;;;;5012986;28;20069;-80
2022/01/18 08:07:33;;;;;;;36.13;6.70;;;6.60;99.90;;;;;;4999670;28;20045;-79
2022/01/18 08:09:59;;;;;;;30.27;6.60;;;6.50;99.90;;;;;;5003040;28;20100;-80
2022/01/18 08:12:26;;;;;;;21.97;6.90;;;6.50;99.90;;;;;;4997711;28;20463;-80
2022/01/18 08:14:59;;;;;;;26.00;7.07;;;6.60;99.90;;;;;;5018467;28;20046;-79
2022/01/18 08:17:25;;;;;;;27.03;7.60;;;6.50;99.90;;;;;;4974850;28;20045;-79
2022/01/18 08:19:50;;;;;;;23.50;6.87;;;6.50;99.90;;;;;;4997620;28;20423;-79
2022/01/18 08:22:16;;;;;;;26.80;7.60;;;6.50;99.90;;;;;;5014284;28;20116;-79
2022/01/18 08:24:42;;;;;;;28.40;7.10;;;6.50;99.90;;;;;;5010587;28;20057;-80
2022/01/18 08:27:08;;;;;;;37.43;8.13;;;6.50;99.90;;;;;;4998974;28;20052;-79
2022/01/18 08:29:36;;;;;;;34.60;8.57;;;6.50;99.90;;;;;;4983468;28;20045;-79
2022/01/18 08:32:03;;;;;;;34.47;8.57;;;6.50;99.90;;;;;;4995024;28;20069;-78
2022/01/18 08:34:29;;;;;;;33.57;8.10;;;6.50;99.90;;;;;;5007006;28;20530;-79
2022/01/18 08:36:55;;;;;;;27.30;7.73;;;6.50;99.90;;;;;;5014669;28;20041;-79
2022/01/18 08:39:21;;;;;;;25.53;8.23;;;6.50;99.90;;;;;;4998830;28;20045;-80
2022/01/18 08:41:46;;;;;;;24.57;8.60;;;6.50;99.90;;;;;;4997227;28;20117;-79
2022/01/18 08:44:12;;;;;;;30.90;9.03;;;6.50;99.90;;;;;;5002511;28;20496;-80
2022/01/18 08:46:40;;;;;;;35.17;8.30;;;6.50;99.90;;;;;;5000671;28;20046;-79
2022/01/18 08:49:06;;;;;;;34.60;9.13;;;6.60;99.90;;;;;;4996650;28;20053;-79
2022/01/18 08:51:32;;;;;;;29.60;8.17;;;6.60;99.90;;;;;;4996963;28;20053;-79
2022/01/18 08:53:58;;;;;;;25.67;7.03;;;6.60;99.90;;;;;;5008585;28;20046;-81
2022/01/18 08:56:24;;;;;;;29.77;8.33;;;6.70;99.90;;;;;;4986051;28;20523;-80
2022/01/18 08:58:50;;;;;;;31.53;7.53;;;6.70;99.90;;;;;;5011169;28;20049;-80
2022/01/18 09:01:16;;;;;;;24.33;7.03;;;6.70;99.90;;;;;;5012865;28;20050;-80
2022/01/18 09:03:44;;;;;;;21.10;7.63;;;6.70;99.90;;;;;;5042562;28;20050;-79
2022/01/18 09:06:15;;;;;;;28.30;7.47;;;6.70;99.90;;;;;;5012450;28;20115;-80
2022/01/18 09:08:41;;;;;;;22.20;7.30;;;6.70;99.90;;;;;;5004736;28;20052;-79
2022/01/18 09:11:10;;;;;;;29.63;7.90;;;6.70;99.90;;;;;;4991545;28;20052;-79
2022/01/18 09:13:36;;;;;;;21.83;7.73;;;6.70;99.90;;;;;;4991362;28;20056;-79
2022/01/18 09:16:06;;;;;;;23.00;7.33;;;6.80;99.90;;;;;;5024040;28;20072;-80
2022/01/18 09:18:31;;;;;;;23.87;7.20;;;6.80;99.90;;;;;;5042205;28;20061;-79
2022/01/18 09:20:59;;;;;;;26.83;8.07;;;6.80;99.90;;;;;;5044962;28;20065;-79
2022/01/18 09:23:25;;;;;;;28.73;8.83;;;6.90;99.90;;;;;;5011146;28;20056;-80
2022/01/18 09:25:51;;;;;;;23.47;7.37;;;6.90;99.90;;;;;;4997181;28;20049;-80
2022/01/18 09:28:17;;;;;;;27.27;7.90;;;6.90;99.90;;;;;;5029373;28;20038;-79
2022/01/18 09:30:43;;;;;;;33.53;8.33;;;6.90;99.90;;;;;;5015626;28;20486;-80
2022/01/18 09:33:08;;;;;;;23.67;7.57;;;7.00;99.90;;;;;;4998967;28;20049;-80
2022/01/18 09:35:35;;;;;;;29.23;7.93;;;7.00;99.90;;;;;;5000223;28;20046;-81
2022/01/18 09:38:03;;;;;;;31.63;8.50;;;7.10;99.90;;;;;;5015351;28;20153;-80
2022/01/18 09:40:30;;;;;;;22.73;7.83;;;7.10;99.90;;;;;;5010291;28;20456;-80
2022/01/18 09:43:01;;;;;;;22.93;7.57;;;7.20;99.90;;;;;;4997785;28;20053;-80
2022/01/18 09:45:28;;;;;;;25.97;8.13;;;7.20;99.90;;;;;;5014055;28;20046;-80
2022/01/18 09:47:56;;;;;;;19.93;7.77;;;7.30;99.90;;;;;;5041856;28;20108;-80
2022/01/18 09:50:28;;;;;;;18.17;7.77;;;7.40;99.90;;;;;;5002043;28;20523;-79
2022/01/18 09:52:56;;;;;;;20.93;7.90;;;7.40;99.90;;;;;;5008612;28;20038;-80
2022/01/18 09:55:25;;;;;;;27.83;8.67;;;7.40;99.90;;;;;;5000554;28;20103;-79
2022/01/18 09:57:52;;;;;;;25.30;8.67;;;7.30;99.90;;;;;;5031570;28;20049;-79
2022/01/18 10:00:19;;;;;;;25.67;8.43;;;7.40;99.90;;;;;;5025448;28;20050;-81
2022/01/18 10:02:46;;;;;;;29.03;9.90;;;7.30;99.90;;;;;;5004303;28;20054;-80
2022/01/18 10:05:21;;;;;;;28.40;8.80;;;7.40;99.90;;;;;;5020078;28;20099;-81
2022/01/18 10:07:59;;;;;;;27.30;9.13;;;7.50;99.90;;;;;;5006914;28;20126;-80
2022/01/18 10:10:42;;;;;;;23.60;9.00;;;7.50;99.90;;;;;;5012947;28;20046;-81
2022/01/18 10:13:13;;;;;;;23.90;8.90;;;7.70;99.90;;;;;;5041124;28;20500;-80
2022/01/18 10:15:39;;;;;;;22.80;8.23;;;7.80;99.90;;;;;;4984089;28;20520;-81
2022/01/18 10:18:07;;;;;;;26.73;8.90;;;8.00;99.90;;;;;;5011296;28;20066;-81
2022/01/18 10:20:47;;;;;;;23.87;8.93;;;8.10;99.90;;;;;;5002477;28;20459;-81
2022/01/18 10:23:20;;;;;;;27.60;8.43;;;8.20;99.90;;;;;;5008679;28;20105;-80
2022/01/18 10:25:47;;;;;;;25.67;8.03;;;8.20;99.90;;;;;;4997833;28;20045;-80
2022/01/18 10:28:28;;;;;;;23.93;9.53;;;8.20;99.90;;;;;;5012230;28;20045;-79
2022/01/18 10:30:54;;;;;;;23.17;8.40;;;8.30;99.90;;;;;;5021867;28;20052;-80
2022/01/18 10:33:27;;;;;;;22.63;8.40;;;8.20;99.90;;;;;;4992339;28;20042;-80
2022/01/18 10:36:11;;;;;;;21.73;7.83;;;8.20;99.90;;;;;;5010242;28;20038;-80
2022/01/18 10:38:38;;;;;;;24.80;8.07;;;8.20;99.90;;;;;;4991507;28;20069;-80
2022/01/18 10:41:30;;;;;;;25.13;8.30;;;8.20;99.90;;;;;;5015169;28;20059;-80
2022/01/18 10:44:07;;;;;;;20.30;7.07;;;8.20;99.90;;;;;;5001233;28;20057;-80
2022/01/18 10:46:34;;;;;;;22.30;8.27;;;8.30;99.90;;;;;;4992722;28;20121;-80
2022/01/18 10:49:00;;;;;;;19.57;7.77;;;8.30;99.90;;;;;;4990983;28;20050;-80
2022/01/18 10:51:27;;;;;;;18.33;7.30;;;8.40;99.90;;;;;;4989419;28;20042;-80
2022/01/18 10:53:57;;;;;;;24.70;7.50;;;8.30;99.90;;;;;;4976541;28;20388;-80
2022/01/18 10:56:23;;;;;;;22.50;8.47;;;8.20;99.90;;;;;;4996322;28;20499;-81
2022/01/18 10:58:57;;;;;;;26.83;7.93;;;8.20;99.90;;;;;;4995405;28;20133;-81
2022/01/18 11:01:23;;;;;;;25.07;8.17;;;8.20;99.90;;;;;;4991619;28;20081;-80
2022/01/18 11:04:06;;;;;;;27.23;9.10;;;8.10;99.90;;;;;;5000761;28;20048;-80
2022/01/18 11:06:32;;;;;;;23.43;8.93;;;8.10;99.90;;;;;;5008091;28;20042;-81
2022/01/18 11:09:07;;;;;;;23.07;7.40;;;8.10;99.90;;;;;;5008549;28;20547;-80
2022/01/18 11:11:40;;;;;;;20.07;8.03;;;8.10;99.90;;;;;;4990469;28;20057;-80
2022/01/18 11:14:08;;;;;;;21.65;7.10;;;8.20;99.90;;;;;;5000499;28;20049;-79
2022/01/18 11:16:40;;;;;;;21.17;6.27;;;8.40;99.90;;;;;;5038222;28;20054;-79
2022/01/18 11:19:07;;;;;;;19.97;6.87;;;8.50;99.90;;;;;;5003811;28;20566;-80
2022/01/18 11:21:33;;;;;;;17.30;5.40;;;8.50;99.90;;;;;;4994700;28;20519;-80
2022/01/18 11:24:00;;;;;;;16.23;5.87;;;8.50;99.90;;;;;;5004572;28;20113;-80
2022/01/18 11:26:27;;;;;;;18.47;5.80;;;8.50;99.90;;;;;;5002659;28;20072;-80
2022/01/18 11:28:56;;;;;;;10.40;3.60;;;8.60;99.90;;;;;;5015438;28;20081;-79
2022/01/18 11:31:23;;;;;;;18.10;4.27;;;8.80;99.90;;;;;;5032694;28;20041;-80
2022/01/18 11:33:54;;;;;;;14.80;3.53;;;8.80;99.90;;;;;;5000533;28;20045;-81
2022/01/18 11:36:24;;;;;;;20.23;3.70;;;8.70;99.90;;;;;;5011336;28;20045;-81
2022/01/18 11:38:53;;;;;;;17.23;4.00;;;8.60;99.90;;;;;;5024675;28;20052;-80
2022/01/18 11:41:24;;;;;;;14.33;4.03;;;8.50;99.90;;;;;;5010544;28;20132;-80
2022/01/18 11:43:51;;;;;;;16.47;3.03;;;8.40;99.90;;;;;;4994323;28;20042;-80
2022/01/18 11:46:25;;;;;;;18.37;3.63;;;8.40;99.90;;;;;;4994022;28;20037;-79
2022/01/18 11:48:59;;;;;;;17.85;3.08;;;8.40;99.90;;;;;;4993969;28;20544;-79
2022/01/18 11:51:35;;;;;;;16.70;4.53;;;8.30;99.90;;;;;;5010363;28;20045;-80
2022/01/18 11:54:19;;;;;;;16.63;4.00;;;8.30;99.90;;;;;;4978582;28;20623;-80
2022/01/18 11:56:46;;;;;;;17.30;3.75;;;8.20;99.90;;;;;;5024385;28;20065;-81
2022/01/18 11:59:14;;;;;;;15.30;3.23;;;8.10;99.90;;;;;;5010866;28;20561;-81
2022/01/18 12:01:53;;;;;;;13.17;3.80;;;8.10;99.90;;;;;;5008701;28;20078;-80
2022/01/18 12:04:59;;;;;;;13.43;3.20;;;8.10;99.90;;;;;;4993231;28;20079;-80
2022/01/18 12:07:57;;;;;;;15.20;3.33;;;8.10;99.90;;;;;;5015476;28;20073;-79
2022/01/18 12:10:46;;;;;;;11.83;3.30;;;8.10;99.90;;;;;;4925400;28;20047;-80
2022/01/18 12:13:27;;;;;;;16.80;3.60;;;8.10;99.90;;;;;;4994348;28;20044;-80
2022/01/18 12:15:56;;;;;;;15.50;3.43;;;8.10;99.90;;;;;;5045779;28;20468;-79
2022/01/18 12:18:25;;;;;;;14.03;3.57;;;8.00;99.90;;;;;;4986162;28;20494;-80
2022/01/18 12:20:52;;;;;;;16.63;3.27;;;7.90;99.90;;;;;;4998257;28;21382;-81
2022/01/18 12:23:21;;;;;;;17.17;3.63;;;8.00;99.90;;;;;;5003925;28;20044;-80
2022/01/18 12:25:56;;;;;;;17.50;3.70;;;7.90;99.90;;;;;;5017920;28;20080;-81
2022/01/18 12:34:34;;;;;;;13.30;3.47;;;7.90;99.90;;;;;;5024818;28;20065;-79
2022/01/18 12:37:44;;;;;;;13.87;3.27;;;7.90;99.90;;;;;;5018592;28;20393;-80
2022/01/18 12:40:29;;;;;;;17.67;3.57;;;7.90;99.90;;;;;;5010885;28;20073;-81
2022/01/18 12:45:30;;;;;;;10.83;3.00;;;7.90;99.90;;;;;;5022907;28;20454;-81
2022/01/18 12:48:00;;;;;;;9.07;2.43;;;7.90;99.90;;;;;;4996760;28;20137;-80
2022/01/18 12:50:31;;;;;;;15.90;3.03;;;7.80;99.90;;;;;;5015895;28;20049;-80
2022/01/18 12:52:58;;;;;;;11.97;2.40;;;7.80;99.90;;;;;;5011909;28;20054;-80
2022/01/18 12:55:27;;;;;;;13.53;2.90;;;7.70;99.90;;;;;;4995119;28;20570;-79
2022/01/18 12:58:06;;;;;;;11.00;2.97;;;7.70;99.90;;;;;;4985616;28;20046;-80
2022/01/18 13:00:38;;;;;;;14.70;3.40;;;7.70;99.90;;;;;;4999347;28;20144;-81
2022/01/18 13:03:04;;;;;;;15.60;3.23;;;7.70;99.90;;;;;;5007404;28;20455;-81
2022/01/18 13:05:37;;;;;;;9.80;3.20;;;7.60;99.90;;;;;;4981717;28;20050;-80
2022/01/18 13:08:04;;;;;;;18.57;4.10;;;7.60;99.90;;;;;;5017540;28;20182;-81
2022/01/18 13:10:35;;;;;;;9.47;3.13;;;7.60;99.90;;;;;;5046122;28;20580;-81
2022/01/18 13:13:01;;;;;;;16.17;3.80;;;7.60;99.90;;;;;;5040347;28;20515;-80
2022/01/18 13:15:40;;;;;;;11.73;3.83;;;7.60;99.90;;;;;;4999455;28;20128;-80
2022/01/18 13:23:53;;;;;;;16.33;4.63;;;7.70;99.90;;;;;;5007434;28;20484;-80
2022/01/18 13:26:28;;;;;;;12.20;4.10;;;7.60;99.90;;;;;;4995235;28;20049;-80
2022/01/18 13:28:53;;;;;;;16.47;4.47;;;7.60;99.90;;;;;;5022654;28;20041;-81
2022/01/18 13:31:21;;;;;;;13.20;4.90;;;7.60;99.90;;;;;;4996907;28;20049;-81
2022/01/18 13:33:49;;;;;;;14.97;4.83;;;7.60;99.90;;;;;;5011596;28;20472;-81
2022/01/18 13:36:16;;;;;;;16.30;5.43;;;7.70;99.90;;;;;;5019871;28;20129;-81
2022/01/18 13:38:42;;;;;;;15.93;5.40;;;7.70;99.90;;;;;;5014129;28;20046;-82
2022/01/18 13:41:07;;;;;;;18.67;6.00;;;7.70;99.90;;;;;;4993984;28;20073;-81
2022/01/18 13:43:33;;;;;;;17.07;6.17;;;7.70;99.90;;;;;;5000933;28;20050;-80
2022/01/18 13:45:59;;;;;;;21.33;6.47;;;7.70;99.90;;;;;;5023818;22;20064;-78
2022/01/18 13:48:31;;;;;;;20.43;6.33;;;7.70;99.90;;;;;;4973463;28;20088;-77
2022/01/18 13:50:58;;;;;;;20.63;5.90;;;7.70;99.90;;;;;;5005486;28;20050;-77
2022/01/18 13:53:28;;;;;;;22.77;6.53;;;7.60;99.90;;;;;;4989738;28;20045;-78
2022/01/18 13:55:56;;;;;;;21.53;5.80;;;7.70;99.90;;;;;;5004322;28;20488;-76
2022/01/18 13:58:25;;;;;;;19.10;6.47;;;7.70;99.90;;;;;;4990071;28;20046;-79
2022/01/18 14:00:51;;;;;;;18.10;5.83;;;7.70;99.90;;;;;;4975631;28;20039;-77
2022/01/18 14:03:31;;;;;;;17.83;5.80;;;7.60;99.90;;;;;;4953495;28;20046;-77
2022/01/18 14:05:57;;;;;;;19.73;5.87;;;7.60;99.90;;;;;;4988943;28;20053;-77
2022/01/18 14:08:33;;;;;;;18.57;5.63;;;7.60;99.90;;;;;;4987267;28;20050;-76
2022/01/18 14:11:00;;;;;;;21.43;5.73;;;7.60;99.90;;;;;;4986727;28;20053;-76
2022/01/18 14:13:35;;;;;;;23.13;7.00;;;7.60;99.90;;;;;;4981305;28;20081;-77
2022/01/18 14:16:02;;;;;;;21.77;6.63;;;7.50;99.90;;;;;;4969635;28;20069;-77